Greenville, TX

6:58 AM CST on November 21, 2017 (GMT -0600)
Majors

Weather History for KGVT - December, 2012

Change the Weather History Date:

Monday, December 3, 2012

  Actual Average Record
Temperature  
Mean Temperature 69 °F -  
Max Temperature 78 °F 58 °F 82 °F (2005)
Min Temperature 60 °F 42 °F 30 °F (2004)
Cooling Degree Days 4    
Growing Degree Days 19 (Base 50)    
Moisture  
Dew Point 57 °F    
Average Humidity 67    
Maximum Humidity 88    
Minimum Humidity 42    
Precipitation  
Precipitation 0.00 in - - ()
Sea Level Pressure  
Sea Level Pressure 29.99 in    
Wind  
Wind Speed 14 mph (South)    
Max Wind Speed 24 mph    
Max Gust Speed 30 mph    
Visibility 10 miles    
Events      
Averages and records for this station are not official NWS values.
T = Trace of Precipitation, MM = Missing Value Source: NWS Daily Summary

Daily Weather History Graph

Daily Weather History Graph

Search for Another Location

Airport or City:

Trip Planner

Search our weather history database for the weather conditions in past years. The results will help you decide how hot, cold, wet, or windy it might be!

Date:

Astronomy

Dec. 03, 2012 Rise Set
Actual Time 7:11 AM CST 5:17 PM CST
Civil Twilight 6:44 AM CST 5:44 PM CST
Nautical Twilight 6:13 AM CST 6:14 PM CST
Astronomical Twilight 5:43 AM CST 6:44 PM CST
Moon 9:56 PM CST (12/3) 10:42 AM CST (12/3)
Length of Visible Light 10h 59m
Length of Day
10h 05m
Waning Gibbous, 78% of the Moon is Illuminated
Dec 3
Waning Gibbous
Dec 6
Last Quarter
Dec 13
New
Dec 19
First Quarter
Dec 28
Full

Hourly Weather History & Observations

Time (CST) Temp. Dew Point Humidity Pressure Visibility Wind Dir Wind Speed Gust Speed Precip Events Conditions
12:15 AM 64.4 °F 57.2 °F 77% 30.03 in 10.0 mi South 12.7 mph - N/A   Clear
12:35 AM 66.2 °F 59.0 °F 78% 30.03 in 10.0 mi South 13.8 mph - N/A   Clear
12:55 AM 66.2 °F 59.0 °F 78% 30.03 in 10.0 mi South 12.7 mph - N/A   Clear
1:35 AM 66.2 °F 59.0 °F 78% 30.02 in 10.0 mi South 15.0 mph - N/A   Clear
1:55 AM 66.2 °F 59.0 °F 78% 30.02 in 10.0 mi South 12.7 mph - N/A   Clear
2:15 AM 64.4 °F 59.0 °F 83% 30.03 in 10.0 mi South 15.0 mph - N/A   Clear
2:35 AM 64.4 °F 59.0 °F 83% 30.02 in 10.0 mi South 16.1 mph 19.6 mph N/A   Clear
2:55 AM 64.4 °F 60.8 °F 88% 30.03 in 10.0 mi South 13.8 mph - N/A   Scattered Clouds
3:15 AM 64.4 °F 60.8 °F 88% 30.02 in 10.0 mi South 13.8 mph - N/A   Clear
3:35 AM 64.4 °F 60.8 °F 88% 30.02 in 10.0 mi SSE 13.8 mph 20.7 mph N/A   Scattered Clouds
3:55 AM 64.4 °F 60.8 °F 88% 30.02 in 10.0 mi South 17.3 mph 21.9 mph N/A   Mostly Cloudy
4:15 AM 66.2 °F 60.8 °F 83% 30.02 in 10.0 mi South 18.4 mph 23.0 mph N/A   Overcast
4:35 AM 66.2 °F 60.8 °F 83% 30.02 in 10.0 mi South 16.1 mph 20.7 mph N/A   Overcast
4:55 AM 64.4 °F 59.0 °F 83% 30.01 in 10.0 mi South 13.8 mph 20.7 mph N/A   Mostly Cloudy
5:15 AM 64.4 °F 59.0 °F 83% 30.01 in 10.0 mi South 11.5 mph 17.3 mph N/A   Mostly Cloudy
5:35 AM 64.4 °F 59.0 °F 83% 30.00 in 10.0 mi South 10.4 mph - N/A   Mostly Cloudy
5:55 AM 64.4 °F 60.8 °F 88% 30.01 in 10.0 mi SSE 9.2 mph - N/A   Mostly Cloudy
6:15 AM 64.4 °F 60.8 °F 88% 30.01 in 10.0 mi SSE 9.2 mph - N/A   Overcast
6:35 AM 64.4 °F 60.8 °F 88% 30.02 in 10.0 mi South 11.5 mph 16.1 mph N/A   Mostly Cloudy
6:55 AM 64.4 °F 60.8 °F 88% 30.02 in 10.0 mi South 10.4 mph - N/A   Overcast
7:15 AM 64.4 °F 60.8 °F 88% 30.03 in 10.0 mi South 13.8 mph 19.6 mph N/A   Overcast
7:35 AM 66.2 °F 59.0 °F 78% 30.03 in 10.0 mi South 15.0 mph 21.9 mph N/A   Overcast
7:55 AM 68.0 °F 59.0 °F 73% 30.03 in 10.0 mi South 12.7 mph 20.7 mph N/A   Overcast
8:15 AM 68.0 °F 59.0 °F 73% 30.03 in 10.0 mi South 13.8 mph 18.4 mph N/A   Overcast
8:35 AM 68.0 °F 59.0 °F 73% 30.03 in 10.0 mi South 16.1 mph 21.9 mph N/A   Overcast
9:15 AM 69.8 °F 60.8 °F 73% 30.03 in 10.0 mi South 15.0 mph 24.2 mph N/A   Overcast
9:35 AM 69.8 °F 60.8 °F 73% 30.04 in 10.0 mi SSW 20.7 mph 29.9 mph N/A   Overcast
9:55 AM 71.6 °F 60.8 °F 69% 30.04 in 10.0 mi South 18.4 mph 26.5 mph N/A   Overcast
10:15 AM 71.6 °F 59.0 °F 64% 30.04 in 10.0 mi South 20.7 mph 27.6 mph N/A   Overcast
10:35 AM 71.6 °F 59.0 °F 64% 30.04 in 10.0 mi South 17.3 mph 23.0 mph N/A   Mostly Cloudy
10:55 AM 71.6 °F 59.0 °F 64% 30.04 in 10.0 mi SSW 13.8 mph 21.9 mph N/A   Mostly Cloudy
11:15 AM 73.4 °F 57.2 °F 57% 30.03 in 10.0 mi South 21.9 mph 28.8 mph N/A   Mostly Cloudy
11:35 AM 73.4 °F 57.2 °F 57% 30.02 in 10.0 mi SSW 17.3 mph 26.5 mph N/A   Scattered Clouds
11:55 AM 75.2 °F 55.4 °F 50% 30.01 in 10.0 mi SSW 20.7 mph 24.2 mph N/A   Scattered Clouds
12:15 PM 77.0 °F 55.4 °F 47% 30.00 in 10.0 mi South 16.1 mph - N/A   Scattered Clouds
12:35 PM 77.0 °F 55.4 °F 47% 29.99 in 10.0 mi SSW 19.6 mph 24.2 mph N/A   Scattered Clouds
1:15 PM 78.8 °F 53.6 °F 42% 29.96 in 10.0 mi South 18.4 mph 25.3 mph N/A   Clear
1:35 PM 78.8 °F 53.6 °F 42% 29.95 in 10.0 mi South 21.9 mph 28.8 mph N/A   Clear
1:55 PM 78.8 °F 53.6 °F 42% 29.94 in 10.0 mi SSW 16.1 mph 27.6 mph N/A   Clear
2:15 PM 78.8 °F 53.6 °F 42% 29.94 in 10.0 mi South 20.7 mph 26.5 mph N/A   Clear
2:35 PM 78.8 °F 53.6 °F 42% 29.93 in 10.0 mi South 16.1 mph 25.3 mph N/A   Clear
2:55 PM 78.8 °F 53.6 °F 42% 29.92 in 10.0 mi South 24.2 mph 29.9 mph N/A   Clear
3:15 PM 78.8 °F 53.6 °F 42% 29.92 in 10.0 mi South 18.4 mph 26.5 mph N/A   Clear
3:35 PM 78.8 °F 53.6 °F 42% 29.91 in 10.0 mi South 19.6 mph 26.5 mph N/A   Clear
3:55 PM 78.8 °F 55.4 °F 44% 29.92 in 10.0 mi South 16.1 mph 23.0 mph N/A   Clear
4:15 PM 78.8 °F 53.6 °F 42% 29.93 in 10.0 mi South 16.1 mph 24.2 mph N/A   Clear
4:35 PM 77.0 °F 55.4 °F 47% 29.92 in 10.0 mi South 16.1 mph - N/A   Clear
4:55 PM 75.2 °F 55.4 °F 50% 29.93 in 10.0 mi SSE 10.4 mph 18.4 mph N/A   Clear
5:15 PM 73.4 °F 55.4 °F 53% 29.93 in 10.0 mi South 11.5 mph - N/A   Clear
5:35 PM 73.4 °F 55.4 °F 53% 29.93 in 10.0 mi South 9.2 mph - N/A   Clear
5:55 PM 71.6 °F 55.4 °F 57% 29.93 in 10.0 mi South 10.4 mph - N/A   Clear
6:15 PM 71.6 °F 55.4 °F 57% 29.94 in 10.0 mi South 10.4 mph - N/A   Scattered Clouds
6:35 PM 71.6 °F 55.4 °F 57% 29.94 in 10.0 mi SSE 8.1 mph - N/A   Mostly Cloudy
6:55 PM 69.8 °F 55.4 °F 60% 29.94 in 10.0 mi SSE 10.4 mph - N/A   Scattered Clouds
7:15 PM 71.6 °F 55.4 °F 57% 29.93 in 10.0 mi SSE 11.5 mph - N/A   Scattered Clouds
7:35 PM 69.8 °F 55.4 °F 60% 29.94 in 10.0 mi South 12.7 mph 17.3 mph N/A   Scattered Clouds
7:55 PM 69.8 °F 55.4 °F 60% 29.94 in 10.0 mi South 9.2 mph - N/A   Clear
8:35 PM 69.8 °F 55.4 °F 60% 29.97 in 10.0 mi South 8.1 mph - N/A   Overcast
8:55 PM 68.0 °F 55.4 °F 64% 29.97 in 10.0 mi South 8.1 mph - N/A   Scattered Clouds
9:15 PM 68.0 °F 55.4 °F 64% 29.97 in 10.0 mi SSE 8.1 mph - N/A   Clear
9:35 PM 68.0 °F 55.4 °F 64% 29.97 in 10.0 mi SSE 8.1 mph - N/A   Clear
9:55 PM 64.4 °F 55.4 °F 73% 29.98 in 10.0 mi South 6.9 mph - N/A   Scattered Clouds
10:15 PM 64.4 °F 55.4 °F 73% 29.99 in 10.0 mi SSE 6.9 mph - N/A   Scattered Clouds
10:35 PM 62.6 °F 55.4 °F 77% 29.99 in 10.0 mi SSE 5.8 mph - N/A   Clear
10:55 PM 62.6 °F 55.4 °F 77% 30.00 in 10.0 mi South 5.8 mph - N/A   Clear
11:15 PM 60.8 °F 55.4 °F 82% 30.00 in 10.0 mi South 5.8 mph - N/A   Clear
11:35 PM 62.6 °F 55.4 °F 77% 30.00 in 10.0 mi SSE 5.8 mph - N/A   Clear
11:55 PM 60.8 °F 55.4 °F 82% 30.00 in 10.0 mi South 6.9 mph - N/A   Clear